createdAt,value
2022-11-10T00:00:05.527Z,97.62
2022-11-10T00:01:05.482Z,97.66
2022-11-10T00:02:05.485Z,97.46
2022-11-10T00:03:05.468Z,97.72
2022-11-10T00:04:05.487Z,97.87
2022-11-10T00:05:05.459Z,97.97
2022-11-10T00:06:05.439Z,98.07
2022-11-10T00:07:05.480Z,98.07
2022-11-10T00:08:05.425Z,98.07
2022-11-10T00:09:05.399Z,97.87
2022-11-10T00:10:05.396Z,97.66
2022-11-10T00:11:05.395Z,97.72
2022-11-10T00:12:05.365Z,97.97
2022-11-10T00:13:05.354Z,98.28
2022-11-10T00:14:05.364Z,97.82
2022-11-10T00:15:05.329Z,97.72
2022-11-10T00:16:05.343Z,98.03
2022-11-10T00:17:05.320Z,98.18
2022-11-10T00:18:05.305Z,97.72
2022-11-10T00:19:05.281Z,98.03
2022-11-10T00:20:06.307Z,97.82
2022-11-10T00:21:05.264Z,98.07
2022-11-10T00:22:05.277Z,98.07
2022-11-10T00:23:05.246Z,97.77
2022-11-10T00:24:06.240Z,97.77
2022-11-10T00:25:05.239Z,97.66
2022-11-10T00:26:05.221Z,97.87
2022-11-10T00:27:05.218Z,97.56
2022-11-10T00:28:05.193Z,98.07
2022-11-10T00:29:05.174Z,97.56
2022-11-10T00:30:05.704Z,98.18
2022-11-10T00:31:05.151Z,98.07
2022-11-10T00:32:07.691Z,98.38
2022-11-10T00:33:05.206Z,98.28
2022-11-10T00:34:05.123Z,98.07
2022-11-10T00:35:11.676Z,98.18
2022-11-10T00:36:05.106Z,98.07
2022-11-10T00:37:05.087Z,98.58
2022-11-10T00:38:05.108Z,98.49
2022-11-10T00:39:05.075Z,98.18
2022-11-10T00:40:05.076Z,98.58
2022-11-10T00:41:05.052Z,97.87
2022-11-10T00:42:05.030Z,98.38
2022-11-10T00:43:05.028Z,98.58
2022-11-10T00:44:05.681Z,98.07
2022-11-10T00:45:05.679Z,98.38
2022-11-10T00:46:05.038Z,98.49
2022-11-10T00:47:04.980Z,98.28
2022-11-10T00:48:04.977Z,98.49
2022-11-10T00:49:04.956Z,98.28
2022-11-10T00:50:05.015Z,98.49
2022-11-10T00:51:04.940Z,98.38
2022-11-10T00:52:04.945Z,97.87
2022-11-10T00:53:04.937Z,98.43
2022-11-10T00:54:05.684Z,98.28
2022-11-10T00:55:04.921Z,98.28
2022-11-10T00:56:04.887Z,98.18
2022-11-10T00:57:04.891Z,98.49
2022-11-10T00:58:04.863Z,98.38
2022-11-10T00:59:04.870Z,98.43
2022-11-10T01:00:04.863Z,98.69
2022-11-10T01:01:04.897Z,98.58
2022-11-10T01:02:04.826Z,98.58
2022-11-10T01:03:04.830Z,98.28
2022-11-10T01:04:04.797Z,98.53
2022-11-10T01:05:04.808Z,98.28
2022-11-10T01:06:04.776Z,98.90
2022-11-10T01:07:04.799Z,98.63
2022-11-10T01:08:05.692Z,98.43
2022-11-10T01:09:04.759Z,99.04
2022-11-10T01:10:04.727Z,98.83
2022-11-10T01:11:05.684Z,98.94
2022-11-10T01:12:04.724Z,99.55
2022-11-10T01:13:04.702Z,99.35
2022-11-10T01:14:04.682Z,99.35
2022-11-10T01:15:04.673Z,99.66
2022-11-10T01:16:04.678Z,99.86
2022-11-10T01:17:04.650Z,99.35
2022-11-10T01:18:04.680Z,99.66
2022-11-10T01:19:04.626Z,99.55
2022-11-10T01:20:04.637Z,99.35
2022-11-10T01:21:04.605Z,99.76
2022-11-10T01:22:04.585Z,99.76
2022-11-10T01:23:06.209Z,99.55
2022-11-10T01:24:04.561Z,99.35
2022-11-10T01:25:04.561Z,99.35
2022-11-10T01:26:04.563Z,99.76
2022-11-10T01:27:05.574Z,99.76
2022-11-10T01:28:04.547Z,99.55
2022-11-10T01:29:04.514Z,99.55
2022-11-10T01:30:04.502Z,99.55
2022-11-10T01:31:05.180Z,99.99
2022-11-10T01:32:04.491Z,99.99
2022-11-10T01:33:04.485Z,99.99
2022-11-10T01:34:04.474Z,99.66
2022-11-10T01:35:05.185Z,99.66
2022-11-10T01:36:04.441Z,99.96
2022-11-10T01:37:04.433Z,99.99
2022-11-10T01:38:04.433Z,99.86
2022-11-10T01:39:04.399Z,99.76
2022-11-10T01:40:04.448Z,99.76
2022-11-10T01:41:04.379Z,99.96
2022-11-10T01:42:04.372Z,99.99
2022-11-10T01:43:04.360Z,99.96
2022-11-10T01:44:04.368Z,99.99
2022-11-10T01:45:04.339Z,99.99
2022-11-10T01:46:04.332Z,99.96
2022-11-10T01:47:05.181Z,99.96
2022-11-10T01:48:04.314Z,99.86
2022-11-10T01:49:04.299Z,99.99
2022-11-10T01:50:05.363Z,99.99
2022-11-10T01:51:04.269Z,99.66
2022-11-10T01:52:04.268Z,99.76
2022-11-10T01:53:04.252Z,99.76
2022-11-10T01:54:04.236Z,99.76
2022-11-10T01:55:06.217Z,99.76
2022-11-10T01:56:04.230Z,99.99
2022-11-10T01:57:07.710Z,99.66
2022-11-10T01:58:05.178Z,99.99
2022-11-10T01:59:04.187Z,99.99
2022-11-10T02:00:04.172Z,99.66
2022-11-10T02:01:04.210Z,99.99
2022-11-10T02:02:04.159Z,99.76
2022-11-10T02:03:04.144Z,99.86
2022-11-10T02:04:04.136Z,99.96
2022-11-10T02:05:04.115Z,99.86
2022-11-10T02:06:04.121Z,99.76
2022-11-10T02:07:04.160Z,99.86
2022-11-10T02:08:05.142Z,99.99
2022-11-10T02:09:04.083Z,99.76
2022-11-10T02:10:04.063Z,99.45
2022-11-10T02:11:04.070Z,99.76
2022-11-10T02:12:04.044Z,99.96
2022-11-10T02:13:04.050Z,99.99
2022-11-10T02:14:04.018Z,99.99
2022-11-10T02:15:04.000Z,99.99
2022-11-10T02:16:04.018Z,99.99
2022-11-10T02:17:03.982Z,99.99
2022-11-10T02:18:03.969Z,99.99
2022-11-10T02:19:03.978Z,99.99
2022-11-10T02:20:03.958Z,99.99
2022-11-10T02:21:03.940Z,99.99
2022-11-10T02:22:05.006Z,99.99
2022-11-10T02:23:03.901Z,99.96
2022-11-10T02:24:03.908Z,99.45
2022-11-10T02:25:05.189Z,99.99
2022-11-10T02:26:03.881Z,99.99
2022-11-10T02:27:03.876Z,99.99
2022-11-10T02:28:04.694Z,99.91
2022-11-10T02:29:03.875Z,99.99
2022-11-10T02:30:03.856Z,99.99
2022-11-10T02:31:03.831Z,99.99
2022-11-10T02:32:03.792Z,99.99
2022-11-10T02:33:03.815Z,99.96
2022-11-10T02:34:03.796Z,99.99
2022-11-10T02:35:03.793Z,99.99
2022-11-10T02:36:03.790Z,99.99
2022-11-10T02:37:03.764Z,99.99
2022-11-10T02:38:03.761Z,99.99
2022-11-10T02:39:04.812Z,99.99
2022-11-10T02:40:03.738Z,99.99
2022-11-10T02:41:04.699Z,99.86
2022-11-10T02:42:03.726Z,99.99
2022-11-10T02:43:03.700Z,99.99
2022-11-10T02:44:03.700Z,99.99
2022-11-10T02:45:03.670Z,99.99
2022-11-10T02:46:03.659Z,99.99
2022-11-10T02:47:03.685Z,99.96
2022-11-10T02:48:03.632Z,99.99
2022-11-10T02:49:03.639Z,99.99
2022-11-10T02:50:10.187Z,99.99
2022-11-10T02:51:04.679Z,99.99
2022-11-10T02:52:04.181Z,99.99
2022-11-10T02:53:03.610Z,99.91
2022-11-10T02:54:03.582Z,99.99
2022-11-10T02:55:03.572Z,99.96
2022-11-10T02:56:03.555Z,99.99
2022-11-10T02:57:03.548Z,99.99
2022-11-10T02:58:03.538Z,99.99
2022-11-10T02:59:03.508Z,99.99
2022-11-10T03:00:03.513Z,99.91
2022-11-10T03:01:03.543Z,99.99
2022-11-10T03:02:03.478Z,99.99
2022-11-10T03:03:03.471Z,99.99
2022-11-10T03:04:03.460Z,99.99
2022-11-10T03:05:03.441Z,99.99
2022-11-10T03:06:03.440Z,99.99
2022-11-10T03:07:03.525Z,99.91
2022-11-10T03:08:03.416Z,99.99
2022-11-10T03:09:04.191Z,99.99
2022-11-10T03:10:03.414Z,99.91
2022-11-10T03:11:03.401Z,99.99
2022-11-10T03:12:03.374Z,99.99
2022-11-10T03:13:03.353Z,99.99
2022-11-10T03:14:03.375Z,99.99
2022-11-10T03:15:03.343Z,99.99
2022-11-10T03:16:03.350Z,99.99
2022-11-10T03:17:03.325Z,99.99
2022-11-10T03:18:04.325Z,99.99
2022-11-10T03:19:04.190Z,99.96
2022-11-10T03:20:06.176Z,99.99
2022-11-10T03:21:03.271Z,99.99
2022-11-10T03:22:03.273Z,99.99
2022-11-10T03:23:03.269Z,99.99
2022-11-10T03:24:03.240Z,99.99
2022-11-10T03:25:04.190Z,99.91
2022-11-10T03:26:03.241Z,99.99
2022-11-10T03:27:03.236Z,99.99
2022-11-10T03:28:03.197Z,99.96
2022-11-10T03:29:03.188Z,99.99
2022-11-10T03:30:03.171Z,99.99
2022-11-10T03:31:03.166Z,99.99
2022-11-10T03:32:03.175Z,99.99
2022-11-10T03:33:03.138Z,99.99
2022-11-10T03:34:03.134Z,99.99
2022-11-10T03:35:03.129Z,99.99
2022-11-10T03:36:03.110Z,99.99
2022-11-10T03:37:03.101Z,99.99
2022-11-10T03:38:03.104Z,99.99
2022-11-10T03:39:04.098Z,99.99
2022-11-10T03:40:03.057Z,99.99
2022-11-10T03:41:18.874Z,99.99
2022-11-10T03:42:04.053Z,99.99
2022-11-10T03:43:03.033Z,99.99
2022-11-10T03:44:03.030Z,99.99
2022-11-10T03:45:03.008Z,99.99
2022-11-10T03:46:02.993Z,99.96
2022-11-10T03:47:05.708Z,99.99
2022-11-10T03:48:02.973Z,99.99
2022-11-10T03:49:02.995Z,99.99
2022-11-10T03:50:02.967Z,99.99
2022-11-10T03:51:02.953Z,99.99
2022-11-10T03:52:02.932Z,99.99
2022-11-10T03:53:02.915Z,99.99
2022-11-10T03:54:03.940Z,99.99
2022-11-10T03:55:03.730Z,99.99
2022-11-10T03:56:02.888Z,99.99
2022-11-10T03:57:02.883Z,99.99
2022-11-10T03:58:02.873Z,99.99
2022-11-10T03:59:02.854Z,99.99
2022-11-10T04:00:02.850Z,99.99
2022-11-10T04:01:02.881Z,99.99
2022-11-10T04:02:02.864Z,99.99
2022-11-10T04:03:02.813Z,99.96
2022-11-10T04:04:02.813Z,99.96
2022-11-10T04:05:02.784Z,99.96
2022-11-10T04:06:02.771Z,99.99
2022-11-10T04:07:02.821Z,99.99
2022-11-10T04:08:05.689Z,99.96
2022-11-10T04:09:02.772Z,99.99
2022-11-10T04:10:02.730Z,99.99
2022-11-10T04:11:02.719Z,99.99
2022-11-10T04:12:02.712Z,99.99
2022-11-10T04:13:03.761Z,99.99
2022-11-10T04:14:02.698Z,99.99
2022-11-10T04:15:02.682Z,99.99
2022-11-10T04:16:02.656Z,99.96
2022-11-10T04:17:02.666Z,99.99
2022-11-10T04:18:02.640Z,99.96
2022-11-10T04:19:02.654Z,99.96
2022-11-10T04:20:02.613Z,99.99
2022-11-10T04:21:02.609Z,99.99
2022-11-10T04:22:02.594Z,99.99
2022-11-10T04:23:02.624Z,99.96
2022-11-10T04:24:02.569Z,99.99
2022-11-10T04:25:02.599Z,99.99
2022-11-10T04:26:02.548Z,99.99
2022-11-10T04:27:03.202Z,99.99
2022-11-10T04:28:02.527Z,99.99
2022-11-10T04:29:02.522Z,99.96
2022-11-10T04:30:02.534Z,99.99
2022-11-10T04:31:02.503Z,99.99
2022-11-10T04:32:05.188Z,99.99
2022-11-10T04:33:02.500Z,99.99
2022-11-10T04:34:02.458Z,99.99
2022-11-10T04:35:02.461Z,99.99
2022-11-10T04:36:02.441Z,99.99
2022-11-10T04:37:02.459Z,99.99
2022-11-10T04:38:02.411Z,99.99
2022-11-10T04:39:02.412Z,99.99
2022-11-10T04:40:03.197Z,99.99
2022-11-10T04:41:05.284Z,99.99
2022-11-10T04:42:03.057Z,99.99
2022-11-10T04:43:02.404Z,99.99
2022-11-10T04:44:02.356Z,99.99
2022-11-10T04:45:02.377Z,99.99
2022-11-10T04:46:02.348Z,99.99
2022-11-10T04:47:02.361Z,99.99
2022-11-10T04:48:02.315Z,99.99
2022-11-10T04:49:02.292Z,99.99
2022-11-10T04:50:03.304Z,99.99
2022-11-10T04:51:02.277Z,99.99
2022-11-10T04:52:02.341Z,99.99
2022-11-10T04:53:02.280Z,99.99
2022-11-10T04:54:02.245Z,99.99
2022-11-10T04:55:02.231Z,99.99
2022-11-10T04:56:02.222Z,99.99
2022-11-10T04:57:02.220Z,99.99
2022-11-10T04:58:02.198Z,99.99
2022-11-10T04:59:02.188Z,99.99
2022-11-10T05:00:02.173Z,99.99
2022-11-10T05:01:02.253Z,99.99
2022-11-10T05:02:02.171Z,99.99
2022-11-10T05:03:02.239Z,99.99
2022-11-10T05:04:04.200Z,99.99
2022-11-10T05:05:02.117Z,99.99
2022-11-10T05:06:02.133Z,99.99
2022-11-10T05:07:02.118Z,99.99
2022-11-10T05:08:02.094Z,99.99
2022-11-10T05:09:02.099Z,99.99
2022-11-10T05:10:02.092Z,99.99
2022-11-10T05:11:02.052Z,99.99
2022-11-10T05:12:02.034Z,99.99
2022-11-10T05:13:04.700Z,99.99
2022-11-10T05:14:02.024Z,99.99
2022-11-10T05:15:02.003Z,99.99
2022-11-10T05:16:02.048Z,99.99
2022-11-10T05:17:01.982Z,99.99
2022-11-10T05:18:01.996Z,99.99
2022-11-10T05:19:01.970Z,99.99
2022-11-10T05:20:01.965Z,99.99
2022-11-10T05:21:01.943Z,99.99
2022-11-10T05:22:01.960Z,99.99
2022-11-10T05:23:01.921Z,99.99
2022-11-10T05:24:02.928Z,99.99
2022-11-10T05:25:01.922Z,99.99
2022-11-10T05:26:01.887Z,99.99
2022-11-10T05:27:01.904Z,99.99
2022-11-10T05:28:01.874Z,99.99
2022-11-10T05:29:01.857Z,99.99
2022-11-10T05:30:02.857Z,99.99
2022-11-10T05:31:08.696Z,99.99
2022-11-10T05:32:01.853Z,99.99
2022-11-10T05:33:01.813Z,99.99
2022-11-10T05:34:02.879Z,99.99
2022-11-10T05:35:01.781Z,99.99
2022-11-10T05:36:01.781Z,99.99
2022-11-10T05:37:01.766Z,99.99
2022-11-10T05:38:01.775Z,99.99
2022-11-10T05:39:01.743Z,99.99
2022-11-10T05:40:01.735Z,99.99
2022-11-10T05:41:01.721Z,99.99
2022-11-10T05:42:01.736Z,99.99
2022-11-10T05:43:01.729Z,99.99
2022-11-10T05:44:08.204Z,99.99
2022-11-10T05:45:01.674Z,99.99
2022-11-10T05:46:01.682Z,99.99
2022-11-10T05:47:01.659Z,99.99
2022-11-10T05:48:01.651Z,99.99
2022-11-10T05:49:01.655Z,99.99
2022-11-10T05:50:01.650Z,99.99
2022-11-10T05:51:01.608Z,99.99
2022-11-10T05:52:01.605Z,99.99
2022-11-10T05:53:01.592Z,99.99
2022-11-10T05:54:01.605Z,99.99
2022-11-10T05:55:01.577Z,99.99
2022-11-10T05:56:01.561Z,99.99
2022-11-10T05:57:01.544Z,99.99
2022-11-10T05:58:01.534Z,99.99
2022-11-10T05:59:01.727Z,99.99
2022-11-10T06:00:01.519Z,99.99
2022-11-10T06:01:01.504Z,99.99
2022-11-10T06:02:01.484Z,99.99
2022-11-10T06:03:01.493Z,99.99
2022-11-10T06:04:01.529Z,99.99
2022-11-10T06:05:02.497Z,99.99
2022-11-10T06:06:01.476Z,99.99
2022-11-10T06:07:01.505Z,99.99
2022-11-10T06:08:01.421Z,99.99
2022-11-10T06:09:01.423Z,99.99
2022-11-10T06:10:01.393Z,99.99
2022-11-10T06:11:01.406Z,99.99
2022-11-10T06:12:01.375Z,99.99
2022-11-10T06:13:02.436Z,99.99
2022-11-10T06:14:01.356Z,99.99
2022-11-10T06:15:01.354Z,99.99
2022-11-10T06:16:01.336Z,99.99
2022-11-10T06:17:01.339Z,99.99
2022-11-10T06:18:01.322Z,99.99
2022-11-10T06:19:01.305Z,99.99
2022-11-10T06:20:01.290Z,99.99
2022-11-10T06:21:01.284Z,99.99
2022-11-10T06:22:06.439Z,99.99
2022-11-10T06:23:02.283Z,99.99
2022-11-10T06:24:01.259Z,99.99
2022-11-10T06:25:01.233Z,99.99
2022-11-10T06:26:01.223Z,99.99
2022-11-10T06:27:04.207Z,99.99
2022-11-10T06:28:01.198Z,99.99
2022-11-10T06:29:01.216Z,99.99
2022-11-10T06:30:01.177Z,99.99
2022-11-10T06:31:01.198Z,99.99
2022-11-10T06:32:01.153Z,99.99
2022-11-10T06:33:07.720Z,99.99
2022-11-10T06:34:01.696Z,99.99
2022-11-10T06:35:01.157Z,99.99
2022-11-10T06:36:01.695Z,99.99
2022-11-10T06:37:01.228Z,99.99
2022-11-10T06:38:01.109Z,99.99
2022-11-10T06:39:15.709Z,99.99
2022-11-10T06:40:01.062Z,99.99
2022-11-10T06:41:01.063Z,99.99
2022-11-10T06:42:01.066Z,99.99
2022-11-10T06:43:01.708Z,99.99
2022-11-10T06:44:01.063Z,99.99
2022-11-10T06:45:07.697Z,99.99
2022-11-10T06:46:01.012Z,99.99
2022-11-10T06:47:00.992Z,99.99
2022-11-10T06:48:00.981Z,99.99
2022-11-10T06:49:00.961Z,99.99
2022-11-10T06:50:00.980Z,99.99
2022-11-10T06:51:00.946Z,99.99
2022-11-10T06:52:00.955Z,99.99
2022-11-10T06:53:03.027Z,99.99
2022-11-10T06:54:01.709Z,99.99
2022-11-10T06:55:01.707Z,99.99
2022-11-10T06:56:00.906Z,99.99
2022-11-10T06:57:00.883Z,99.99
2022-11-10T06:58:01.708Z,99.99
2022-11-10T06:59:00.850Z,99.99
2022-11-10T07:00:00.849Z,99.99
2022-11-10T07:01:01.783Z,99.99
2022-11-10T07:02:02.732Z,99.99
2022-11-10T07:03:00.809Z,99.99
2022-11-10T07:04:28.398Z,99.99
2022-11-10T07:05:01.782Z,99.99
2022-11-10T07:06:00.784Z,99.99
2022-11-10T07:07:04.331Z,99.99
2022-11-10T07:08:00.765Z,99.99
2022-11-10T07:09:00.782Z,99.99
2022-11-10T07:10:06.517Z,99.99
2022-11-10T07:11:02.698Z,99.99
2022-11-10T07:12:00.722Z,99.99
2022-11-10T07:13:00.728Z,99.99
2022-11-10T07:14:00.708Z,99.99
2022-11-10T07:15:00.678Z,99.99
2022-11-10T07:16:00.686Z,99.99
2022-11-10T07:17:00.670Z,99.99
2022-11-10T07:18:00.663Z,99.99
2022-11-10T07:19:01.211Z,99.99
2022-11-10T07:20:00.619Z,99.99
2022-11-10T07:21:00.615Z,99.99
2022-11-10T07:22:00.603Z,99.99
2022-11-10T07:23:00.779Z,99.99
2022-11-10T07:24:07.212Z,99.99
2022-11-10T07:25:01.227Z,99.99
2022-11-10T07:26:00.558Z,99.99
2022-11-10T07:27:00.554Z,99.99
2022-11-10T07:28:00.528Z,99.99
2022-11-10T07:29:00.527Z,99.99
2022-11-10T07:30:07.209Z,99.99
2022-11-10T07:31:00.498Z,99.99
2022-11-10T07:32:01.200Z,99.99
2022-11-10T07:33:00.497Z,99.99
2022-11-10T07:34:03.205Z,99.99
2022-11-10T07:35:00.454Z,99.99
2022-11-10T07:36:00.439Z,99.99
2022-11-10T07:37:00.438Z,99.99
2022-11-10T07:38:07.213Z,99.99
2022-11-10T07:39:00.437Z,99.99
2022-11-10T07:40:00.424Z,99.99
2022-11-10T07:41:00.406Z,99.99
2022-11-10T07:42:00.377Z,99.99
2022-11-10T07:43:00.360Z,99.99
2022-11-10T07:44:00.373Z,99.99
2022-11-10T07:45:00.342Z,99.99
2022-11-10T07:46:00.340Z,99.99
2022-11-10T07:47:00.331Z,99.99
2022-11-10T07:48:00.337Z,99.99
2022-11-10T07:49:00.294Z,99.99
2022-11-10T07:50:00.296Z,99.99
2022-11-10T07:51:15.206Z,99.99
2022-11-10T07:52:00.267Z,99.99
2022-11-10T07:53:00.720Z,99.99
2022-11-10T07:54:01.210Z,99.99
2022-11-10T07:55:00.234Z,99.99
2022-11-10T07:56:00.263Z,99.99
2022-11-10T07:57:00.204Z,99.99
2022-11-10T07:58:00.206Z,99.99
2022-11-10T07:59:00.176Z,99.99
2022-11-10T08:00:00.717Z,99.82
2022-11-10T08:01:00.161Z,99.99
2022-11-10T08:02:00.243Z,99.82
2022-11-10T08:03:00.143Z,99.99
2022-11-10T08:04:00.149Z,99.99
2022-11-10T08:05:00.126Z,99.99
2022-11-10T08:06:00.709Z,99.87
2022-11-10T08:07:01.274Z,99.87
2022-11-10T08:08:00.247Z,99.99
2022-11-10T08:09:00.236Z,99.99
2022-11-10T08:10:00.718Z,99.99
2022-11-10T08:11:00.706Z,99.99
2022-11-10T08:12:00.101Z,99.99
2022-11-10T08:13:00.042Z,99.99
2022-11-10T08:14:00.020Z,99.99
2022-11-10T08:15:00.249Z,99.93
2022-11-10T08:15:59.999Z,99.77
2022-11-10T08:16:59.980Z,99.93
2022-11-10T08:17:59.985Z,99.77
2022-11-10T08:18:59.973Z,99.93
2022-11-10T08:19:59.955Z,99.93
2022-11-10T08:21:00.230Z,99.93
2022-11-10T08:21:59.951Z,99.82
2022-11-10T08:22:59.915Z,99.62
2022-11-10T08:23:59.916Z,99.31
2022-11-10T08:24:59.898Z,99.52
2022-11-10T08:25:59.920Z,99.27
2022-11-10T08:26:59.923Z,99.52
2022-11-10T08:27:59.906Z,99.27
2022-11-10T08:28:59.854Z,99.16
2022-11-10T08:29:59.850Z,99.41
2022-11-10T08:31:05.197Z,99.37
2022-11-10T08:32:00.825Z,99.27
2022-11-10T08:32:59.808Z,99.27
2022-11-10T08:34:07.743Z,98.96
2022-11-10T08:34:59.801Z,98.86
2022-11-10T08:35:59.777Z,98.24
2022-11-10T08:36:59.782Z,98.65
2022-11-10T08:37:59.759Z,98.61
2022-11-10T08:38:59.741Z,98.65
2022-11-10T08:39:59.743Z,98.50
2022-11-10T08:40:59.725Z,98.14
2022-11-10T08:41:59.713Z,97.99
2022-11-10T08:42:59.722Z,98.20
2022-11-10T08:43:59.711Z,98.10
2022-11-10T08:44:59.678Z,98.35
2022-11-10T08:45:59.737Z,98.30
2022-11-10T08:46:59.660Z,98.50
2022-11-10T08:47:59.641Z,98.50
2022-11-10T08:48:59.766Z,97.69
2022-11-10T08:49:59.622Z,97.99
2022-11-10T08:50:59.611Z,97.99
2022-11-10T08:51:59.599Z,97.74
2022-11-10T08:53:00.310Z,98.10
2022-11-10T08:53:59.733Z,98.15
2022-11-10T08:55:02.216Z,97.89
2022-11-10T08:56:00.208Z,97.85
2022-11-10T08:57:00.204Z,97.54
2022-11-10T08:58:02.204Z,97.85
2022-11-10T08:59:01.254Z,97.54
2022-11-10T09:00:00.236Z,97.33
2022-11-10T09:01:00.211Z,97.64
2022-11-10T09:02:00.229Z,97.13
2022-11-10T09:03:00.207Z,96.83
2022-11-10T09:04:00.208Z,96.62
2022-11-10T09:05:01.322Z,97.19
2022-11-10T09:06:14.205Z,97.08
2022-11-10T09:07:06.277Z,96.17
2022-11-10T09:08:02.233Z,96.17
2022-11-10T09:09:01.235Z,96.17
2022-11-10T09:10:07.370Z,96.17
2022-11-10T09:11:01.246Z,96.33
2022-11-10T09:12:01.241Z,95.81
2022-11-10T09:13:02.218Z,96.12
2022-11-10T09:14:06.212Z,95.92
2022-11-10T09:15:02.213Z,95.51
2022-11-10T09:16:01.261Z,95.41
2022-11-10T09:17:02.223Z,95.72
2022-11-10T09:18:02.207Z,95.72
2022-11-10T09:19:01.353Z,95.61
2022-11-10T09:20:01.295Z,95.81
2022-11-10T09:20:59.278Z,95.36
2022-11-10T09:21:59.264Z,94.79
2022-11-10T09:23:01.789Z,94.59
2022-11-10T09:23:59.240Z,94.04
2022-11-10T09:24:59.236Z,94.85
2022-11-10T09:25:59.235Z,94.70
2022-11-10T09:27:01.723Z,94.59
2022-11-10T09:27:59.714Z,94.65
2022-11-10T09:28:59.189Z,94.55
2022-11-10T09:29:59.175Z,94.45
2022-11-10T09:30:59.183Z,94.75
2022-11-10T09:31:59.186Z,93.84
2022-11-10T09:32:59.154Z,94.14
2022-11-10T09:33:59.128Z,94.14
2022-11-10T09:34:59.120Z,93.84
2022-11-10T09:35:59.112Z,93.93
2022-11-10T09:36:59.101Z,93.79
2022-11-10T09:37:59.090Z,93.69
2022-11-10T09:38:59.101Z,93.79
2022-11-10T09:40:01.341Z,93.69
2022-11-10T09:40:59.056Z,93.69
2022-11-10T09:41:59.046Z,93.38
2022-11-10T09:42:59.024Z,93.54
2022-11-10T09:43:59.042Z,93.33
2022-11-10T09:44:59.700Z,93.24
2022-11-10T09:45:59.720Z,93.18
2022-11-10T09:46:58.998Z,92.83
2022-11-10T09:48:05.732Z,92.63
2022-11-10T09:48:59.242Z,92.72
2022-11-10T09:49:58.964Z,92.32
2022-11-10T09:50:59.710Z,92.63
2022-11-10T09:51:58.934Z,92.58
2022-11-10T09:52:58.920Z,92.38
2022-11-10T09:53:58.914Z,92.48
2022-11-10T09:54:58.914Z,92.48
2022-11-10T09:55:58.891Z,91.97
2022-11-10T09:56:58.895Z,92.18
2022-11-10T09:57:58.863Z,92.07
2022-11-10T09:58:58.859Z,92.33
2022-11-10T09:59:58.870Z,91.77
2022-11-10T10:00:59.780Z,91.56
2022-11-10T10:01:58.869Z,91.83
2022-11-10T10:02:58.808Z,90.85
2022-11-10T10:03:58.818Z,90.81
2022-11-10T10:05:03.844Z,91.01
2022-11-10T10:05:58.793Z,91.22
2022-11-10T10:07:10.822Z,91.01
2022-11-10T10:07:59.915Z,90.81
2022-11-10T10:08:58.741Z,90.81
2022-11-10T10:09:58.754Z,90.70
2022-11-10T10:10:59.714Z,90.86
2022-11-10T10:11:58.708Z,91.07
2022-11-10T10:12:58.793Z,90.97
2022-11-10T10:13:58.685Z,90.66
2022-11-10T10:14:58.678Z,89.95
2022-11-10T10:15:58.666Z,90.56
2022-11-10T10:16:58.666Z,90.66
2022-11-10T10:17:58.651Z,90.16
2022-11-10T10:18:58.758Z,90.46
2022-11-10T10:19:58.636Z,90.46
2022-11-10T10:20:58.611Z,90.05
2022-11-10T10:21:58.596Z,90.56
2022-11-10T10:22:58.603Z,90.72
2022-11-10T10:24:20.162Z,89.81
2022-11-10T10:24:59.570Z,89.81
2022-11-10T10:25:58.548Z,89.91
2022-11-10T10:26:58.542Z,89.91
2022-11-10T10:27:58.521Z,90.62
2022-11-10T10:28:58.540Z,90.31
2022-11-10T10:29:58.517Z,89.61
2022-11-10T10:30:58.507Z,89.09
2022-11-10T10:31:58.478Z,90.01
2022-11-10T10:32:58.480Z,90.01
2022-11-10T10:33:58.472Z,89.91
2022-11-10T10:34:58.471Z,90.31
2022-11-10T10:35:58.449Z,89.20
2022-11-10T10:36:59.224Z,89.76
2022-11-10T10:37:58.410Z,89.26
2022-11-10T10:38:58.411Z,89.15
2022-11-10T10:39:58.749Z,88.13
2022-11-10T10:40:58.391Z,88.65
2022-11-10T10:41:58.386Z,88.85
2022-11-10T10:42:58.365Z,89.05
2022-11-10T10:43:59.216Z,89.31
2022-11-10T10:44:58.411Z,88.71
2022-11-10T10:45:58.753Z,88.10
2022-11-10T10:46:58.321Z,88.60
2022-11-10T10:47:58.299Z,87.69
2022-11-10T10:49:26.865Z,87.59
2022-11-10T10:49:59.283Z,87.89
2022-11-10T10:50:58.288Z,87.99
2022-11-10T10:51:58.285Z,87.49
2022-11-10T10:52:58.252Z,87.75
2022-11-10T10:53:58.272Z,87.75
2022-11-10T10:54:58.231Z,87.24
2022-11-10T10:55:58.224Z,87.75
2022-11-10T10:56:58.213Z,86.43
2022-11-10T10:57:58.204Z,86.43
2022-11-10T10:58:58.714Z,87.20
2022-11-10T10:59:58.193Z,87.24
2022-11-10T11:00:58.244Z,87.40
2022-11-10T11:01:58.801Z,86.19
2022-11-10T11:03:04.143Z,86.29
2022-11-10T11:03:59.715Z,86.08
2022-11-10T11:04:58.122Z,86.29
2022-11-10T11:05:58.106Z,86.29
2022-11-10T11:06:58.160Z,85.13
2022-11-10T11:07:58.729Z,85.78
2022-11-10T11:08:59.701Z,86.29
2022-11-10T11:09:58.081Z,85.58
2022-11-10T11:10:58.063Z,84.87
2022-11-10T11:11:58.724Z,85.78
2022-11-10T11:12:58.053Z,85.58
2022-11-10T11:13:58.020Z,84.77
2022-11-10T11:14:58.038Z,84.87
2022-11-10T11:15:58.023Z,85.27
2022-11-10T11:16:57.993Z,85.47
2022-11-10T11:17:58.723Z,84.56
2022-11-10T11:18:58.721Z,84.16
2022-11-10T11:20:00.030Z,85.27
2022-11-10T11:20:57.972Z,84.56
2022-11-10T11:21:57.933Z,84.66
2022-11-10T11:22:57.904Z,84.46
2022-11-10T11:23:58.739Z,84.77
2022-11-10T11:24:57.899Z,85.33
2022-11-10T11:25:57.883Z,83.71
2022-11-10T11:26:59.749Z,83.81
2022-11-10T11:27:57.873Z,84.22
2022-11-10T11:28:57.851Z,84.12
2022-11-10T11:29:57.846Z,83.40
2022-11-10T11:30:57.827Z,83.57
2022-11-10T11:31:57.830Z,83.37
2022-11-10T11:32:57.809Z,83.77
2022-11-10T11:33:57.797Z,83.26
2022-11-10T11:34:58.720Z,83.26
2022-11-10T11:35:57.777Z,83.67
2022-11-10T11:36:57.772Z,83.33
2022-11-10T11:37:57.736Z,82.92
2022-11-10T11:38:57.738Z,81.81
2022-11-10T11:39:57.754Z,81.91
2022-11-10T11:40:57.719Z,82.42
2022-11-10T11:41:57.746Z,81.91
2022-11-10T11:42:57.710Z,82.11
2022-11-10T11:43:57.690Z,82.42
2022-11-10T11:44:57.673Z,82.01
2022-11-10T11:45:57.683Z,82.01
2022-11-10T11:46:57.649Z,81.77
2022-11-10T11:47:57.659Z,80.65
2022-11-10T11:48:57.760Z,81.77
2022-11-10T11:49:58.220Z,81.67
2022-11-10T11:51:00.228Z,81.06
2022-11-10T11:52:00.219Z,81.87
2022-11-10T11:52:57.585Z,81.57
2022-11-10T11:53:57.584Z,80.65
2022-11-10T11:54:57.573Z,80.76
2022-11-10T11:55:57.565Z,80.96
2022-11-10T11:56:57.530Z,81.06
2022-11-10T11:57:57.538Z,81.02
2022-11-10T11:58:57.510Z,80.82
2022-11-10T11:59:57.503Z,80.82
2022-11-10T12:00:57.514Z,80.41
2022-11-10T12:01:57.482Z,80.52
2022-11-10T12:02:57.567Z,80.55
2022-11-10T12:03:57.453Z,80.72
2022-11-10T12:04:57.456Z,80.92
2022-11-10T12:05:57.459Z,80.72
2022-11-10T12:06:57.471Z,80.68
2022-11-10T12:07:57.418Z,79.91
2022-11-10T12:08:57.406Z,80.31
2022-11-10T12:09:57.398Z,79.80
2022-11-10T12:10:57.401Z,80.07
2022-11-10T12:11:57.401Z,80.52
2022-11-10T12:12:57.360Z,80.58
2022-11-10T12:13:57.346Z,80.68
2022-11-10T12:14:57.341Z,80.68
2022-11-10T12:15:57.352Z,80.52
2022-11-10T12:16:57.348Z,80.58
2022-11-10T12:17:57.299Z,80.52
2022-11-10T12:18:57.300Z,80.01
2022-11-10T12:19:57.277Z,80.55
2022-11-10T12:20:57.294Z,80.55
2022-11-10T12:21:57.283Z,80.99
2022-11-10T12:22:58.239Z,80.69
2022-11-10T12:24:00.227Z,80.99
2022-11-10T12:24:57.220Z,80.86
2022-11-10T12:25:57.727Z,81.30
2022-11-10T12:26:57.240Z,81.50
2022-11-10T12:27:57.203Z,81.60
2022-11-10T12:28:57.181Z,82.72
2022-11-10T12:29:57.168Z,82.66
2022-11-10T12:31:01.600Z,83.06
2022-11-10T12:31:57.151Z,82.70
2022-11-10T12:32:57.163Z,83.40
2022-11-10T12:33:57.126Z,83.10
2022-11-10T12:34:57.115Z,83.40
2022-11-10T12:35:59.743Z,83.51
2022-11-10T12:36:57.104Z,83.37
2022-11-10T12:37:57.264Z,83.31
2022-11-10T12:39:00.400Z,83.26
2022-11-10T12:39:59.734Z,82.96
2022-11-10T12:40:57.053Z,82.35
2022-11-10T12:41:57.036Z,82.45
2022-11-10T12:42:57.272Z,81.50
2022-11-10T12:43:57.033Z,81.37
2022-11-10T12:45:11.739Z,80.65
2022-11-10T12:45:56.991Z,80.62
2022-11-10T12:46:56.991Z,80.21
2022-11-10T12:47:56.973Z,80.11
2022-11-10T12:48:57.000Z,80.01
2022-11-10T12:49:56.944Z,80.62
2022-11-10T12:50:56.937Z,80.21
2022-11-10T12:51:56.934Z,79.60